sensor_id;sensor_type;location;lat;lon;timestamp;temperature;humidity
19622;DHT22;9958;33.196;-97.114;2023-02-28T00:01:28;22.00;44.60
19622;DHT22;9958;33.196;-97.114;2023-02-28T00:03:57;21.90;44.50
19622;DHT22;9958;33.196;-97.114;2023-02-28T00:06:27;21.90;44.60
19622;DHT22;9958;33.196;-97.114;2023-02-28T00:08:55;21.80;44.90
19622;DHT22;9958;33.196;-97.114;2023-02-28T00:11:24;21.70;45.30
19622;DHT22;9958;33.196;-97.114;2023-02-28T00:13:52;21.70;45.40
19622;DHT22;9958;33.196;-97.114;2023-02-28T00:16:22;21.60;45.50
19622;DHT22;9958;33.196;-97.114;2023-02-28T00:18:51;21.50;46.00
19622;DHT22;9958;33.196;-97.114;2023-02-28T00:21:20;21.30;46.50
19622;DHT22;9958;33.196;-97.114;2023-02-28T00:23:50;21.20;46.90
19622;DHT22;9958;33.196;-97.114;2023-02-28T00:26:18;21.10;47.20
19622;DHT22;9958;33.196;-97.114;2023-02-28T00:28:46;20.90;47.40
19622;DHT22;9958;33.196;-97.114;2023-02-28T00:31:15;20.80;47.60
19622;DHT22;9958;33.196;-97.114;2023-02-28T00:33:43;20.70;47.40
19622;DHT22;9958;33.196;-97.114;2023-02-28T00:36:11;20.60;47.80
19622;DHT22;9958;33.196;-97.114;2023-02-28T00:38:40;20.40;48.40
19622;DHT22;9958;33.196;-97.114;2023-02-28T00:41:10;20.20;48.90
19622;DHT22;9958;33.196;-97.114;2023-02-28T00:43:39;20.10;49.20
19622;DHT22;9958;33.196;-97.114;2023-02-28T00:46:07;20.00;49.60
19622;DHT22;9958;33.196;-97.114;2023-02-28T00:48:36;19.80;50.00
19622;DHT22;9958;33.196;-97.114;2023-02-28T00:51:04;19.70;50.00
19622;DHT22;9958;33.196;-97.114;2023-02-28T00:53:33;19.60;51.20
19622;DHT22;9958;33.196;-97.114;2023-02-28T00:56:01;19.50;51.20
19622;DHT22;9958;33.196;-97.114;2023-02-28T00:58:31;19.30;51.10
19622;DHT22;9958;33.196;-97.114;2023-02-28T01:01:00;19.20;51.50
19622;DHT22;9958;33.196;-97.114;2023-02-28T01:03:28;19.10;51.70
19622;DHT22;9958;33.196;-97.114;2023-02-28T01:05:56;18.90;52.00
19622;DHT22;9958;33.196;-97.114;2023-02-28T01:08:25;18.90;52.50
19622;DHT22;9958;33.196;-97.114;2023-02-28T01:10:54;18.70;52.60
19622;DHT22;9958;33.196;-97.114;2023-02-28T01:13:22;18.60;53.10
19622;DHT22;9958;33.196;-97.114;2023-02-28T01:15:55;18.50;53.30
19622;DHT22;9958;33.196;-97.114;2023-02-28T01:18:23;18.40;53.20
19622;DHT22;9958;33.196;-97.114;2023-02-28T01:20:52;18.30;53.40
19622;DHT22;9958;33.196;-97.114;2023-02-28T01:23:21;18.30;53.70
19622;DHT22;9958;33.196;-97.114;2023-02-28T01:25:50;18.20;53.80
19622;DHT22;9958;33.196;-97.114;2023-02-28T01:28:18;18.10;53.90
19622;DHT22;9958;33.196;-97.114;2023-02-28T01:30:48;18.00;53.90
19622;DHT22;9958;33.196;-97.114;2023-02-28T01:33:18;17.90;54.10
19622;DHT22;9958;33.196;-97.114;2023-02-28T01:35:46;17.80;54.50
19622;DHT22;9958;33.196;-97.114;2023-02-28T01:38:15;17.80;54.50
19622;DHT22;9958;33.196;-97.114;2023-02-28T01:40:43;17.70;55.20
19622;DHT22;9958;33.196;-97.114;2023-02-28T01:43:20;17.70;54.80
19622;DHT22;9958;33.196;-97.114;2023-02-28T01:45:49;17.60;54.70
19622;DHT22;9958;33.196;-97.114;2023-02-28T01:48:20;17.50;54.80
19622;DHT22;9958;33.196;-97.114;2023-02-28T01:50:49;17.40;54.80
19622;DHT22;9958;33.196;-97.114;2023-02-28T01:53:21;17.40;54.90
19622;DHT22;9958;33.196;-97.114;2023-02-28T01:55:51;17.40;55.10
19622;DHT22;9958;33.196;-97.114;2023-02-28T01:58:21;17.30;55.10
19622;DHT22;9958;33.196;-97.114;2023-02-28T02:00:50;17.30;55.30
19622;DHT22;9958;33.196;-97.114;2023-02-28T02:03:22;17.20;55.40
19622;DHT22;9958;33.196;-97.114;2023-02-28T02:05:51;17.10;55.50
19622;DHT22;9958;33.196;-97.114;2023-02-28T02:08:21;17.10;55.70
19622;DHT22;9958;33.196;-97.114;2023-02-28T02:10:52;17.00;55.80
19622;DHT22;9958;33.196;-97.114;2023-02-28T02:13:34;17.00;56.00
19622;DHT22;9958;33.196;-97.114;2023-02-28T02:16:16;17.00;56.10
19622;DHT22;9958;33.196;-97.114;2023-02-28T02:18:50;16.90;56.10
19622;DHT22;9958;33.196;-97.114;2023-02-28T02:24:55;16.90;56.30
19622;DHT22;9958;33.196;-97.114;2023-02-28T02:30:29;16.80;56.50
19622;DHT22;9958;33.196;-97.114;2023-02-28T02:36:13;16.70;56.50
19622;DHT22;9958;33.196;-97.114;2023-02-28T02:38:50;16.70;56.70
19622;DHT22;9958;33.196;-97.114;2023-02-28T02:41:24;16.60;56.80
19622;DHT22;9958;33.196;-97.114;2023-02-28T02:43:57;16.60;57.00
19622;DHT22;9958;33.196;-97.114;2023-02-28T02:46:32;16.60;57.20
19622;DHT22;9958;33.196;-97.114;2023-02-28T02:49:04;16.50;57.40
19622;DHT22;9958;33.196;-97.114;2023-02-28T02:51:38;16.50;57.60
19622;DHT22;9958;33.196;-97.114;2023-02-28T02:54:11;16.50;57.90
19622;DHT22;9958;33.196;-97.114;2023-02-28T02:56:43;16.40;58.00
19622;DHT22;9958;33.196;-97.114;2023-02-28T02:59:15;16.40;58.00
19622;DHT22;9958;33.196;-97.114;2023-02-28T03:01:50;16.40;58.10
19622;DHT22;9958;33.196;-97.114;2023-02-28T03:04:21;16.30;58.30
19622;DHT22;9958;33.196;-97.114;2023-02-28T03:06:53;16.30;58.50
19622;DHT22;9958;33.196;-97.114;2023-02-28T03:09:22;16.20;58.80
19622;DHT22;9958;33.196;-97.114;2023-02-28T03:11:51;16.20;58.70
19622;DHT22;9958;33.196;-97.114;2023-02-28T03:14:28;16.20;58.70
19622;DHT22;9958;33.196;-97.114;2023-02-28T03:20:01;16.10;59.20
19622;DHT22;9958;33.196;-97.114;2023-02-28T03:22:47;16.10;59.60
19622;DHT22;9958;33.196;-97.114;2023-02-28T03:25:23;16.00;59.80
19622;DHT22;9958;33.196;-97.114;2023-02-28T03:28:00;16.00;60.00
19622;DHT22;9958;33.196;-97.114;2023-02-28T03:30:38;15.90;60.10
19622;DHT22;9958;33.196;-97.114;2023-02-28T03:33:10;15.90;60.30
19622;DHT22;9958;33.196;-97.114;2023-02-28T03:35:44;15.80;60.40
19622;DHT22;9958;33.196;-97.114;2023-02-28T03:38:18;15.80;60.30
19622;DHT22;9958;33.196;-97.114;2023-02-28T03:40:50;15.80;60.10
19622;DHT22;9958;33.196;-97.114;2023-02-28T03:43:22;15.80;60.10
19622;DHT22;9958;33.196;-97.114;2023-02-28T03:45:53;15.70;60.00
19622;DHT22;9958;33.196;-97.114;2023-02-28T03:48:26;15.70;60.00
19622;DHT22;9958;33.196;-97.114;2023-02-28T03:50:58;15.70;60.60
19622;DHT22;9958;33.196;-97.114;2023-02-28T03:53:32;15.70;60.80
19622;DHT22;9958;33.196;-97.114;2023-02-28T03:56:06;15.70;60.80
19622;DHT22;9958;33.196;-97.114;2023-02-28T03:58:39;15.60;61.00
19622;DHT22;9958;33.196;-97.114;2023-02-28T04:01:12;15.60;61.30
19622;DHT22;9958;33.196;-97.114;2023-02-28T04:03:41;15.60;61.40
19622;DHT22;9958;33.196;-97.114;2023-02-28T04:06:15;15.60;61.90
19622;DHT22;9958;33.196;-97.114;2023-02-28T04:08:46;15.50;61.90
19622;DHT22;9958;33.196;-97.114;2023-02-28T04:11:21;15.50;62.40
19622;DHT22;9958;33.196;-97.114;2023-02-28T04:13:50;15.50;62.50
19622;DHT22;9958;33.196;-97.114;2023-02-28T04:16:18;15.40;62.40
19622;DHT22;9958;33.196;-97.114;2023-02-28T04:18:47;15.30;62.80
19622;DHT22;9958;33.196;-97.114;2023-02-28T04:21:15;15.30;63.20
19622;DHT22;9958;33.196;-97.114;2023-02-28T04:23:48;15.20;63.60
19622;DHT22;9958;33.196;-97.114;2023-02-28T04:26:16;15.20;63.60
19622;DHT22;9958;33.196;-97.114;2023-02-28T04:28:44;15.20;63.80
19622;DHT22;9958;33.196;-97.114;2023-02-28T04:31:13;15.10;64.00
19622;DHT22;9958;33.196;-97.114;2023-02-28T04:33:41;15.10;64.00
19622;DHT22;9958;33.196;-97.114;2023-02-28T04:36:09;15.10;64.00
19622;DHT22;9958;33.196;-97.114;2023-02-28T04:38:39;15.00;63.90
19622;DHT22;9958;33.196;-97.114;2023-02-28T04:41:09;15.00;64.20
19622;DHT22;9958;33.196;-97.114;2023-02-28T04:43:37;15.00;64.30
19622;DHT22;9958;33.196;-97.114;2023-02-28T04:46:06;15.00;64.60
19622;DHT22;9958;33.196;-97.114;2023-02-28T04:48:36;15.00;64.50
19622;DHT22;9958;33.196;-97.114;2023-02-28T04:51:06;14.90;64.40
19622;DHT22;9958;33.196;-97.114;2023-02-28T04:53:35;15.00;64.40
19622;DHT22;9958;33.196;-97.114;2023-02-28T04:56:04;15.00;64.70
19622;DHT22;9958;33.196;-97.114;2023-02-28T04:58:34;14.90;64.80
19622;DHT22;9958;33.196;-97.114;2023-02-28T05:01:03;14.90;64.90
19622;DHT22;9958;33.196;-97.114;2023-02-28T05:03:39;14.90;65.00
19622;DHT22;9958;33.196;-97.114;2023-02-28T05:06:08;14.90;65.30
19622;DHT22;9958;33.196;-97.114;2023-02-28T05:08:36;14.80;65.10
19622;DHT22;9958;33.196;-97.114;2023-02-28T05:11:07;14.80;65.30
19622;DHT22;9958;33.196;-97.114;2023-02-28T05:13:37;14.80;65.60
19622;DHT22;9958;33.196;-97.114;2023-02-28T05:16:06;14.80;65.70
19622;DHT22;9958;33.196;-97.114;2023-02-28T05:18:35;14.80;65.70
19622;DHT22;9958;33.196;-97.114;2023-02-28T05:21:03;14.70;65.60
19622;DHT22;9958;33.196;-97.114;2023-02-28T05:23:32;14.70;65.70
19622;DHT22;9958;33.196;-97.114;2023-02-28T05:26:00;14.70;65.80
19622;DHT22;9958;33.196;-97.114;2023-02-28T05:28:29;14.70;66.20
19622;DHT22;9958;33.196;-97.114;2023-02-28T05:30:59;14.70;66.10
19622;DHT22;9958;33.196;-97.114;2023-02-28T05:33:27;14.70;66.20
19622;DHT22;9958;33.196;-97.114;2023-02-28T05:35:56;14.60;66.20
19622;DHT22;9958;33.196;-97.114;2023-02-28T05:38:24;14.60;66.20
19622;DHT22;9958;33.196;-97.114;2023-02-28T05:40:53;14.60;66.20
19622;DHT22;9958;33.196;-97.114;2023-02-28T05:43:21;14.60;66.40
19622;DHT22;9958;33.196;-97.114;2023-02-28T05:45:49;14.50;66.70
19622;DHT22;9958;33.196;-97.114;2023-02-28T05:48:19;14.50;66.90
19622;DHT22;9958;33.196;-97.114;2023-02-28T05:50:48;14.50;67.00
19622;DHT22;9958;33.196;-97.114;2023-02-28T05:53:16;14.50;67.20
19622;DHT22;9958;33.196;-97.114;2023-02-28T05:55:44;14.40;67.10
19622;DHT22;9958;33.196;-97.114;2023-02-28T05:58:12;14.40;67.30
19622;DHT22;9958;33.196;-97.114;2023-02-28T06:00:41;14.40;67.30
19622;DHT22;9958;33.196;-97.114;2023-02-28T06:03:09;14.30;67.20
19622;DHT22;9958;33.196;-97.114;2023-02-28T06:05:39;14.30;67.20
19622;DHT22;9958;33.196;-97.114;2023-02-28T06:08:07;14.30;67.80
19622;DHT22;9958;33.196;-97.114;2023-02-28T06:10:36;14.20;68.20
19622;DHT22;9958;33.196;-97.114;2023-02-28T06:13:05;14.20;68.10
19622;DHT22;9958;33.196;-97.114;2023-02-28T06:15:33;14.20;68.10
19622;DHT22;9958;33.196;-97.114;2023-02-28T06:18:01;14.20;68.30
19622;DHT22;9958;33.196;-97.114;2023-02-28T06:20:30;14.20;68.40
19622;DHT22;9958;33.196;-97.114;2023-02-28T06:23:00;14.10;68.40
19622;DHT22;9958;33.196;-97.114;2023-02-28T06:25:28;14.10;68.70
19622;DHT22;9958;33.196;-97.114;2023-02-28T06:27:57;14.10;68.90
19622;DHT22;9958;33.196;-97.114;2023-02-28T06:30:25;14.10;69.10
19622;DHT22;9958;33.196;-97.114;2023-02-28T06:32:54;14.00;69.10
19622;DHT22;9958;33.196;-97.114;2023-02-28T06:35:23;14.00;68.90
19622;DHT22;9958;33.196;-97.114;2023-02-28T06:37:51;13.90;68.90
19622;DHT22;9958;33.196;-97.114;2023-02-28T06:40:21;13.90;68.90
19622;DHT22;9958;33.196;-97.114;2023-02-28T06:42:49;13.90;69.10
19622;DHT22;9958;33.196;-97.114;2023-02-28T06:45:19;13.80;69.10
19622;DHT22;9958;33.196;-97.114;2023-02-28T06:47:48;13.80;69.10
19622;DHT22;9958;33.196;-97.114;2023-02-28T06:50:18;13.80;69.60
19622;DHT22;9958;33.196;-97.114;2023-02-28T06:52:47;13.80;69.90
19622;DHT22;9958;33.196;-97.114;2023-02-28T06:55:21;13.70;69.90
19622;DHT22;9958;33.196;-97.114;2023-02-28T06:57:50;13.70;70.00
19622;DHT22;9958;33.196;-97.114;2023-02-28T07:00:18;13.60;69.80
19622;DHT22;9958;33.196;-97.114;2023-02-28T07:02:47;13.60;70.30
19622;DHT22;9958;33.196;-97.114;2023-02-28T07:05:15;13.60;70.30
19622;DHT22;9958;33.196;-97.114;2023-02-28T07:07:44;13.50;69.90
19622;DHT22;9958;33.196;-97.114;2023-02-28T07:10:13;13.50;70.20
19622;DHT22;9958;33.196;-97.114;2023-02-28T07:12:44;13.50;70.30
19622;DHT22;9958;33.196;-97.114;2023-02-28T07:15:13;13.40;70.30
19622;DHT22;9958;33.196;-97.114;2023-02-28T07:17:41;13.40;70.70
19622;DHT22;9958;33.196;-97.114;2023-02-28T07:20:10;13.40;70.80
19622;DHT22;9958;33.196;-97.114;2023-02-28T07:22:39;13.30;70.90
19622;DHT22;9958;33.196;-97.114;2023-02-28T07:25:09;13.30;70.70
19622;DHT22;9958;33.196;-97.114;2023-02-28T07:27:37;13.20;70.60
19622;DHT22;9958;33.196;-97.114;2023-02-28T07:30:08;13.20;70.70
19622;DHT22;9958;33.196;-97.114;2023-02-28T07:32:37;13.20;70.90
19622;DHT22;9958;33.196;-97.114;2023-02-28T07:35:06;13.10;71.00
19622;DHT22;9958;33.196;-97.114;2023-02-28T07:37:34;13.10;71.30
19622;DHT22;9958;33.196;-97.114;2023-02-28T07:40:03;13.10;71.20
19622;DHT22;9958;33.196;-97.114;2023-02-28T07:42:35;13.10;71.20
19622;DHT22;9958;33.196;-97.114;2023-02-28T07:45:04;13.00;71.50
19622;DHT22;9958;33.196;-97.114;2023-02-28T07:47:34;13.00;71.30
19622;DHT22;9958;33.196;-97.114;2023-02-28T07:50:02;12.90;71.50
19622;DHT22;9958;33.196;-97.114;2023-02-28T07:52:31;12.90;71.50
19622;DHT22;9958;33.196;-97.114;2023-02-28T07:55:00;12.90;71.70
19622;DHT22;9958;33.196;-97.114;2023-02-28T07:57:28;12.90;72.00
19622;DHT22;9958;33.196;-97.114;2023-02-28T07:59:56;12.80;71.90
19622;DHT22;9958;33.196;-97.114;2023-02-28T08:02:25;12.80;71.50
19622;DHT22;9958;33.196;-97.114;2023-02-28T08:04:55;12.70;72.00
19622;DHT22;9958;33.196;-97.114;2023-02-28T08:07:23;12.70;72.40
19622;DHT22;9958;33.196;-97.114;2023-02-28T08:09:51;12.70;72.40
19622;DHT22;9958;33.196;-97.114;2023-02-28T08:12:20;12.60;72.40
19622;DHT22;9958;33.196;-97.114;2023-02-28T08:14:48;12.60;72.90
19622;DHT22;9958;33.196;-97.114;2023-02-28T08:17:16;12.50;73.00
19622;DHT22;9958;33.196;-97.114;2023-02-28T08:19:46;12.50;72.80
19622;DHT22;9958;33.196;-97.114;2023-02-28T08:22:15;12.50;72.70
19622;DHT22;9958;33.196;-97.114;2023-02-28T08:24:44;12.40;72.70
19622;DHT22;9958;33.196;-97.114;2023-02-28T08:27:12;12.40;72.90
19622;DHT22;9958;33.196;-97.114;2023-02-28T08:29:41;12.30;72.90
19622;DHT22;9958;33.196;-97.114;2023-02-28T08:32:09;12.30;73.10
19622;DHT22;9958;33.196;-97.114;2023-02-28T08:34:39;12.20;73.80
19622;DHT22;9958;33.196;-97.114;2023-02-28T08:37:07;12.20;74.70
19622;DHT22;9958;33.196;-97.114;2023-02-28T08:39:38;12.10;75.10
19622;DHT22;9958;33.196;-97.114;2023-02-28T08:42:06;12.10;75.30
19622;DHT22;9958;33.196;-97.114;2023-02-28T08:44:34;12.00;75.70
19622;DHT22;9958;33.196;-97.114;2023-02-28T08:47:03;12.00;76.20
19622;DHT22;9958;33.196;-97.114;2023-02-28T08:49:31;12.00;76.20
19622;DHT22;9958;33.196;-97.114;2023-02-28T08:51:59;11.90;76.00
19622;DHT22;9958;33.196;-97.114;2023-02-28T08:54:28;11.80;75.90
19622;DHT22;9958;33.196;-97.114;2023-02-28T08:56:59;11.80;76.10
19622;DHT22;9958;33.196;-97.114;2023-02-28T08:59:28;11.80;76.30
19622;DHT22;9958;33.196;-97.114;2023-02-28T09:01:57;11.80;76.30
19622;DHT22;9958;33.196;-97.114;2023-02-28T09:04:25;11.70;75.80
19622;DHT22;9958;33.196;-97.114;2023-02-28T09:06:57;11.70;75.40
19622;DHT22;9958;33.196;-97.114;2023-02-28T09:09:25;11.70;75.80
19622;DHT22;9958;33.196;-97.114;2023-02-28T09:11:55;11.70;75.80
19622;DHT22;9958;33.196;-97.114;2023-02-28T09:14:25;11.70;75.40
19622;DHT22;9958;33.196;-97.114;2023-02-28T09:16:53;11.60;75.30
19622;DHT22;9958;33.196;-97.114;2023-02-28T09:19:22;11.60;75.40
19622;DHT22;9958;33.196;-97.114;2023-02-28T09:21:50;11.60;75.90
19622;DHT22;9958;33.196;-97.114;2023-02-28T09:24:19;11.60;76.10
19622;DHT22;9958;33.196;-97.114;2023-02-28T09:26:47;11.60;76.00
19622;DHT22;9958;33.196;-97.114;2023-02-28T09:29:15;11.50;75.70
19622;DHT22;9958;33.196;-97.114;2023-02-28T09:31:45;11.50;75.70
19622;DHT22;9958;33.196;-97.114;2023-02-28T09:34:13;11.50;75.90
19622;DHT22;9958;33.196;-97.114;2023-02-28T09:36:43;11.50;75.00
19622;DHT22;9958;33.196;-97.114;2023-02-28T09:39:12;11.50;74.00
19622;DHT22;9958;33.196;-97.114;2023-02-28T09:41:43;11.50;73.20
19622;DHT22;9958;33.196;-97.114;2023-02-28T09:44:19;11.50;72.60
19622;DHT22;9958;33.196;-97.114;2023-02-28T09:46:53;11.50;72.00
19622;DHT22;9958;33.196;-97.114;2023-02-28T09:49:28;11.50;72.00
19622;DHT22;9958;33.196;-97.114;2023-02-28T09:52:00;11.60;71.40
19622;DHT22;9958;33.196;-97.114;2023-02-28T09:54:31;11.60;71.30
19622;DHT22;9958;33.196;-97.114;2023-02-28T09:57:04;11.60;71.40
19622;DHT22;9958;33.196;-97.114;2023-02-28T09:59:42;11.70;71.50
19622;DHT22;9958;33.196;-97.114;2023-02-28T10:02:44;11.70;70.80
19622;DHT22;9958;33.196;-97.114;2023-02-28T10:05:15;11.70;70.30
19622;DHT22;9958;33.196;-97.114;2023-02-28T10:07:54;11.70;70.30
19622;DHT22;9958;33.196;-97.114;2023-02-28T10:10:29;11.70;69.90
19622;DHT22;9958;33.196;-97.114;2023-02-28T10:13:00;11.70;69.50
19622;DHT22;9958;33.196;-97.114;2023-02-28T10:15:31;11.70;70.00
19622;DHT22;9958;33.196;-97.114;2023-02-28T10:18:04;11.70;70.10
19622;DHT22;9958;33.196;-97.114;2023-02-28T10:20:34;11.70;70.30
19622;DHT22;9958;33.196;-97.114;2023-02-28T10:23:08;11.70;70.60
19622;DHT22;9958;33.196;-97.114;2023-02-28T10:25:39;11.70;70.70
19622;DHT22;9958;33.196;-97.114;2023-02-28T10:28:11;11.70;71.30
19622;DHT22;9958;33.196;-97.114;2023-02-28T10:30:42;11.70;71.10
19622;DHT22;9958;33.196;-97.114;2023-02-28T10:33:27;11.60;71.00
19622;DHT22;9958;33.196;-97.114;2023-02-28T10:35:56;11.60;70.50
19622;DHT22;9958;33.196;-97.114;2023-02-28T10:38:26;11.50;70.10
19622;DHT22;9958;33.196;-97.114;2023-02-28T10:41:04;11.50;70.80
19622;DHT22;9958;33.196;-97.114;2023-02-28T10:43:33;11.50;69.50
19622;DHT22;9958;33.196;-97.114;2023-02-28T10:46:04;11.50;69.50
19622;DHT22;9958;33.196;-97.114;2023-02-28T10:48:37;11.50;69.50
19622;DHT22;9958;33.196;-97.114;2023-02-28T10:51:07;11.40;69.50
19622;DHT22;9958;33.196;-97.114;2023-02-28T10:53:47;11.40;69.60
19622;DHT22;9958;33.196;-97.114;2023-02-28T10:56:18;11.40;69.30
19622;DHT22;9958;33.196;-97.114;2023-02-28T10:58:51;11.40;69.00
19622;DHT22;9958;33.196;-97.114;2023-02-28T11:01:21;11.40;69.00
19622;DHT22;9958;33.196;-97.114;2023-02-28T11:03:52;11.40;69.10
19622;DHT22;9958;33.196;-97.114;2023-02-28T11:06:22;11.40;68.70
19622;DHT22;9958;33.196;-97.114;2023-02-28T11:08:52;11.30;68.70
19622;DHT22;9958;33.196;-97.114;2023-02-28T11:11:24;11.30;68.80
19622;DHT22;9958;33.196;-97.114;2023-02-28T11:13:54;11.30;69.10
19622;DHT22;9958;33.196;-97.114;2023-02-28T11:16:32;11.30;69.00
19622;DHT22;9958;33.196;-97.114;2023-02-28T11:19:04;11.30;69.10
19622;DHT22;9958;33.196;-97.114;2023-02-28T11:21:36;11.30;68.70
19622;DHT22;9958;33.196;-97.114;2023-02-28T11:24:18;11.30;68.40
19622;DHT22;9958;33.196;-97.114;2023-02-28T11:26:49;11.30;68.80
19622;DHT22;9958;33.196;-97.114;2023-02-28T11:29:20;11.30;68.80
19622;DHT22;9958;33.196;-97.114;2023-02-28T11:32:09;11.30;69.00
19622;DHT22;9958;33.196;-97.114;2023-02-28T11:34:41;11.20;68.90
19622;DHT22;9958;33.196;-97.114;2023-02-28T11:37:13;11.20;69.30
19622;DHT22;9958;33.196;-97.114;2023-02-28T11:39:43;11.20;69.60
19622;DHT22;9958;33.196;-97.114;2023-02-28T11:42:35;11.10;69.50
19622;DHT22;9958;33.196;-97.114;2023-02-28T11:45:18;11.10;69.90
19622;DHT22;9958;33.196;-97.114;2023-02-28T11:47:55;11.10;70.00
19622;DHT22;9958;33.196;-97.114;2023-02-28T11:50:47;11.10;70.30
19622;DHT22;9958;33.196;-97.114;2023-02-28T11:53:23;11.00;70.40
19622;DHT22;9958;33.196;-97.114;2023-02-28T11:56:00;11.00;70.10
19622;DHT22;9958;33.196;-97.114;2023-02-28T11:58:42;11.00;70.60
19622;DHT22;9958;33.196;-97.114;2023-02-28T12:01:23;10.90;70.40
19622;DHT22;9958;33.196;-97.114;2023-02-28T12:04:04;10.90;70.40
19622;DHT22;9958;33.196;-97.114;2023-02-28T12:06:43;10.90;70.40
19622;DHT22;9958;33.196;-97.114;2023-02-28T12:09:28;10.90;70.20
19622;DHT22;9958;33.196;-97.114;2023-02-28T12:12:06;10.90;69.50
19622;DHT22;9958;33.196;-97.114;2023-02-28T12:14:54;10.90;69.50
19622;DHT22;9958;33.196;-97.114;2023-02-28T12:17:36;10.90;69.00
19622;DHT22;9958;33.196;-97.114;2023-02-28T12:20:17;10.90;68.80
19622;DHT22;9958;33.196;-97.114;2023-02-28T12:23:00;10.90;68.60
19622;DHT22;9958;33.196;-97.114;2023-02-28T12:25:54;10.90;68.50
19622;DHT22;9958;33.196;-97.114;2023-02-28T12:28:27;10.90;68.40
19622;DHT22;9958;33.196;-97.114;2023-02-28T12:30:59;10.90;68.30
19622;DHT22;9958;33.196;-97.114;2023-02-28T12:33:34;11.00;68.50
19622;DHT22;9958;33.196;-97.114;2023-02-28T12:36:05;11.00;68.50
19622;DHT22;9958;33.196;-97.114;2023-02-28T12:38:43;11.00;68.20
19622;DHT22;9958;33.196;-97.114;2023-02-28T12:41:14;11.00;68.50
19622;DHT22;9958;33.196;-97.114;2023-02-28T12:43:46;11.00;68.80
19622;DHT22;9958;33.196;-97.114;2023-02-28T12:46:19;11.00;68.60
19622;DHT22;9958;33.196;-97.114;2023-02-28T12:48:53;10.90;68.50
19622;DHT22;9958;33.196;-97.114;2023-02-28T12:51:25;11.00;68.70
19622;DHT22;9958;33.196;-97.114;2023-02-28T12:54:04;10.90;68.50
19622;DHT22;9958;33.196;-97.114;2023-02-28T12:56:42;10.90;68.60
19622;DHT22;9958;33.196;-97.114;2023-02-28T12:59:19;10.90;68.40
19622;DHT22;9958;33.196;-97.114;2023-02-28T13:02:21;10.90;68.70
19622;DHT22;9958;33.196;-97.114;2023-02-28T13:05:25;10.90;68.90
19622;DHT22;9958;33.196;-97.114;2023-02-28T13:11:00;10.80;69.20
19622;DHT22;9958;33.196;-97.114;2023-02-28T13:13:29;10.80;69.40
19622;DHT22;9958;33.196;-97.114;2023-02-28T13:16:06;10.80;69.40
19622;DHT22;9958;33.196;-97.114;2023-02-28T13:18:36;10.80;69.90
19622;DHT22;9958;33.196;-97.114;2023-02-28T13:21:07;10.80;69.60
19622;DHT22;9958;33.196;-97.114;2023-02-28T13:23:52;10.70;69.30
19622;DHT22;9958;33.196;-97.114;2023-02-28T13:29:41;10.80;69.70
19622;DHT22;9958;33.196;-97.114;2023-02-28T13:32:30;10.80;69.80
19622;DHT22;9958;33.196;-97.114;2023-02-28T13:38:37;10.90;69.80
19622;DHT22;9958;33.196;-97.114;2023-02-28T13:44:24;11.00;69.30
19622;DHT22;9958;33.196;-97.114;2023-02-28T13:50:34;11.10;68.60
19622;DHT22;9958;33.196;-97.114;2023-02-28T13:53:35;11.30;68.40
19622;DHT22;9958;33.196;-97.114;2023-02-28T13:56:18;11.40;67.60
19622;DHT22;9958;33.196;-97.114;2023-02-28T13:58:54;11.50;67.30
19622;DHT22;9958;33.196;-97.114;2023-02-28T14:01:36;11.60;66.40
19622;DHT22;9958;33.196;-97.114;2023-02-28T14:04:49;11.70;65.50
19622;DHT22;9958;33.196;-97.114;2023-02-28T14:07:21;11.90;64.60
19622;DHT22;9958;33.196;-97.114;2023-02-28T14:09:58;12.00;63.70
19622;DHT22;9958;33.196;-97.114;2023-02-28T14:13:01;12.10;62.90
19622;DHT22;9958;33.196;-97.114;2023-02-28T14:15:44;12.20;61.70
19622;DHT22;9958;33.196;-97.114;2023-02-28T14:18:27;12.40;61.60
19622;DHT22;9958;33.196;-97.114;2023-02-28T14:21:10;12.60;61.40
19622;DHT22;9958;33.196;-97.114;2023-02-28T14:23:49;12.70;61.50
19622;DHT22;9958;33.196;-97.114;2023-02-28T14:26:37;12.90;60.70
19622;DHT22;9958;33.196;-97.114;2023-02-28T14:32:13;13.20;59.90
19622;DHT22;9958;33.196;-97.114;2023-02-28T14:34:49;13.40;60.20
19622;DHT22;9958;33.196;-97.114;2023-02-28T14:37:25;13.60;59.60
19622;DHT22;9958;33.196;-97.114;2023-02-28T14:39:54;13.70;59.70
19622;DHT22;9958;33.196;-97.114;2023-02-28T14:42:31;13.90;58.20
19622;DHT22;9958;33.196;-97.114;2023-02-28T14:45:01;14.10;57.20
19622;DHT22;9958;33.196;-97.114;2023-02-28T14:47:31;14.30;56.70
19622;DHT22;9958;33.196;-97.114;2023-02-28T14:50:03;14.50;56.50
19622;DHT22;9958;33.196;-97.114;2023-02-28T14:52:33;14.60;55.20
19622;DHT22;9958;33.196;-97.114;2023-02-28T14:55:05;14.80;55.80
19622;DHT22;9958;33.196;-97.114;2023-02-28T14:57:41;15.00;56.90
19622;DHT22;9958;33.196;-97.114;2023-02-28T15:00:16;15.20;55.90
19622;DHT22;9958;33.196;-97.114;2023-02-28T15:02:45;15.50;55.50
19622;DHT22;9958;33.196;-97.114;2023-02-28T15:05:24;15.60;54.40
19622;DHT22;9958;33.196;-97.114;2023-02-28T15:08:04;15.80;53.70
19622;DHT22;9958;33.196;-97.114;2023-02-28T15:10:33;16.00;53.60
19622;DHT22;9958;33.196;-97.114;2023-02-28T15:13:04;16.30;52.60
19622;DHT22;9958;33.196;-97.114;2023-02-28T15:15:45;16.40;52.00
19622;DHT22;9958;33.196;-97.114;2023-02-28T15:18:25;16.60;52.40
19622;DHT22;9958;33.196;-97.114;2023-02-28T15:20:56;16.90;52.30
19622;DHT22;9958;33.196;-97.114;2023-02-28T15:23:25;17.00;51.80
19622;DHT22;9958;33.196;-97.114;2023-02-28T15:25:54;17.20;51.50
19622;DHT22;9958;33.196;-97.114;2023-02-28T15:28:23;17.40;52.40
19622;DHT22;9958;33.196;-97.114;2023-02-28T15:30:55;17.60;53.20
19622;DHT22;9958;33.196;-97.114;2023-02-28T15:33:25;17.80;54.60
19622;DHT22;9958;33.196;-97.114;2023-02-28T15:36:10;17.90;55.70
19622;DHT22;9958;33.196;-97.114;2023-02-28T15:38:39;18.10;54.40
19622;DHT22;9958;33.196;-97.114;2023-02-28T15:41:23;18.30;52.90
19622;DHT22;9958;33.196;-97.114;2023-02-28T15:44:24;18.50;52.50
19622;DHT22;9958;33.196;-97.114;2023-02-28T15:46:59;18.70;52.80
19622;DHT22;9958;33.196;-97.114;2023-02-28T15:49:32;18.80;53.00
19622;DHT22;9958;33.196;-97.114;2023-02-28T15:52:09;19.00;53.10
19622;DHT22;9958;33.196;-97.114;2023-02-28T15:54:41;19.10;52.50
19622;DHT22;9958;33.196;-97.114;2023-02-28T15:57:15;19.30;51.80
19622;DHT22;9958;33.196;-97.114;2023-02-28T15:59:50;19.40;51.50
19622;DHT22;9958;33.196;-97.114;2023-02-28T16:02:20;19.60;52.20
19622;DHT22;9958;33.196;-97.114;2023-02-28T16:04:56;19.80;51.30
19622;DHT22;9958;33.196;-97.114;2023-02-28T16:07:27;19.90;51.40
19622;DHT22;9958;33.196;-97.114;2023-02-28T16:09:55;20.10;50.30
19622;DHT22;9958;33.196;-97.114;2023-02-28T16:12:27;20.30;50.40
19622;DHT22;9958;33.196;-97.114;2023-02-28T16:14:57;20.40;48.90
19622;DHT22;9958;33.196;-97.114;2023-02-28T16:17:31;20.60;48.50
19622;DHT22;9958;33.196;-97.114;2023-02-28T16:20:00;20.70;49.10